GMTAGMFK

Guest
Details From GMTA - CHERIF EL IDRISSI
To GMFK - MOULAY ALI CHERIF
Flight Number -
Tags generated
Created
Modified
Stats Distance 222 nm / 411 km
Max Altitude 27,200 ft / 8,291 m
Waypoints 4
Social Downloads 0
Likes 0
Share VATSIM

Download

Looking for another format? Having issues loading an existing format? Contact us
Advertisement - Login to hide

Notes

Basic altitude profile: - Ascent Rate: 2500ft/min - Ascent Speed: 250kts - Cruise Altitude: 4000ft - Cruise Speed: 420kts - Descent Rate: 1500ft/min - Descent Speed: 250kts Options: - Use NATs: yes - Use PACOTS: yes - Use low airways: yes - Use high airways: no

Route

GMTA FES W240F ERA GMFK

ID Type Via Altitude Latitude Longitude Leg Dist Tot Dist Heading (true) Name
O GMTA APT - 0 ft / 0 m 35.17730˚ -3.83956˚ - 0 nm - CHERIF EL IDRISSI
FES VOR - 27,200 ft / 8,291 m 33.92750˚ -5.01361˚ 94 nm 94 nm 218° / 217° SAISS VOR-DME
ERA VOR W240F (AWY-LO) 500 ft / 152 m 31.92417˚ -4.36056˚ 124 nm 219 nm 165° / 165° ERRACHIDIA VOR-DME
O GMFK APT - 0 ft / 0 m 31.94825˚ -4.40096˚ 2 nm 222 nm 305° / 305° MOULAY ALI CHERIF

Altitude Profile

Advertisement - Login to hide

Weather


0- 5 10 15 20 25 30 35+ Temperature / ° C

Clouds and Precipitation
Forecast for 2018-06-23 06:00 UTC. Updated 5 hours ago

Ground ~20,000 ft ~40,000 ft Winds

GMTA

Details ICAO GMTA (AHU)
Name CHERIF EL IDRISSI
Region Morocco
Timezone Africa/Casablanca (UTC+1.0)
Stats Elevation 95 ft / 29 m (AMSL)
Location 35.177296° -3.839555°
Runways 1
Magnetic Variation 0.638° W

METAR

GMTA 230800Z 34002KT 8000 FEW015 23/20 Q1015 NOSIG

Decode

TAF

TAF TAF GMTA 230500Z 2306/2412 3000 BR NSC BECMG 2306/2308 6000 NSW BKN013

Decode

Departure Runways

ID Width Length Bearing (true) Bearing (mag) Surface Threshold Offset Overrun Length
18 148 ft / 45 m 8,234 ft / 2,510 m 172.65° 173.29° Asphalt 0 ft / 0 m 0 ft / 0 m
36 148 ft / 45 m 8,234 ft / 2,510 m 352.65° 353.29° Asphalt 0 ft / 0 m 0 ft / 0 m

GMFK

Details ICAO GMFK (ERH)
Name MOULAY ALI CHERIF
Region Morocco
Timezone Africa/Casablanca (UTC+1.0)
Stats Elevation 3,428 ft / 1,045 m (AMSL)
Location 31.948252° -4.400956°
Runways 1
Magnetic Variation 0.869° W

METAR

GMFK 230800Z 08021KT CAVOK 30/M01 Q1018 NOSIG

Decode

TAF

Not found

Destination Runways

ID Width Length Bearing (true) Bearing (mag) Surface Threshold Offset Overrun Length
13 148 ft / 45 m 10,576 ft / 3,224 m 125.08° 125.95° Asphalt 0 ft / 0 m 0 ft / 0 m
31 148 ft / 45 m 10,576 ft / 3,224 m 305.10° 305.97° Asphalt 0 ft / 0 m 0 ft / 0 m

Popular Alternatives